sensor_id;sensor_type;location;lat;lon;timestamp;P1;durP1;ratioP1;P2;durP2;ratioP2
3597;SDS011;1813;52.016;8.714;2023-05-07T00:02:01;40.37;;;27.97;;
3597;SDS011;1813;52.016;8.714;2023-05-07T00:04:35;40.70;;;28.13;;
3597;SDS011;1813;52.016;8.714;2023-05-07T00:07:09;44.10;;;28.67;;
3597;SDS011;1813;52.016;8.714;2023-05-07T00:09:43;39.10;;;26.77;;
3597;SDS011;1813;52.016;8.714;2023-05-07T00:12:19;44.00;;;28.43;;
3597;SDS011;1813;52.016;8.714;2023-05-07T00:14:53;41.37;;;27.50;;
3597;SDS011;1813;52.016;8.714;2023-05-07T00:17:27;42.37;;;28.13;;
3597;SDS011;1813;52.016;8.714;2023-05-07T00:20:00;39.97;;;28.73;;
3597;SDS011;1813;52.016;8.714;2023-05-07T00:22:35;43.50;;;28.53;;
3597;SDS011;1813;52.016;8.714;2023-05-07T00:25:09;39.23;;;28.03;;
3597;SDS011;1813;52.016;8.714;2023-05-07T00:27:46;42.07;;;28.90;;
3597;SDS011;1813;52.016;8.714;2023-05-07T00:30:20;42.77;;;28.17;;
3597;SDS011;1813;52.016;8.714;2023-05-07T00:32:53;45.43;;;29.63;;
3597;SDS011;1813;52.016;8.714;2023-05-07T00:35:27;41.43;;;28.83;;
3597;SDS011;1813;52.016;8.714;2023-05-07T00:38:01;41.80;;;29.30;;
3597;SDS011;1813;52.016;8.714;2023-05-07T00:40:35;40.63;;;28.40;;
3597;SDS011;1813;52.016;8.714;2023-05-07T00:43:13;42.53;;;29.20;;
3597;SDS011;1813;52.016;8.714;2023-05-07T00:45:47;43.47;;;28.83;;
3597;SDS011;1813;52.016;8.714;2023-05-07T00:48:22;43.47;;;29.80;;
3597;SDS011;1813;52.016;8.714;2023-05-07T00:50:56;45.80;;;29.80;;
3597;SDS011;1813;52.016;8.714;2023-05-07T00:53:30;43.13;;;30.30;;
3597;SDS011;1813;52.016;8.714;2023-05-07T00:56:04;43.13;;;29.60;;
3597;SDS011;1813;52.016;8.714;2023-05-07T00:58:42;42.80;;;28.60;;
3597;SDS011;1813;52.016;8.714;2023-05-07T01:01:16;47.60;;;30.80;;
3597;SDS011;1813;52.016;8.714;2023-05-07T01:03:53;45.10;;;30.23;;
3597;SDS011;1813;52.016;8.714;2023-05-07T01:06:28;44.73;;;30.57;;
3597;SDS011;1813;52.016;8.714;2023-05-07T01:09:03;46.57;;;29.67;;
3597;SDS011;1813;52.016;8.714;2023-05-07T01:11:39;44.83;;;30.77;;
3597;SDS011;1813;52.016;8.714;2023-05-07T01:14:16;43.80;;;30.87;;
3597;SDS011;1813;52.016;8.714;2023-05-07T01:16:51;49.10;;;30.17;;
3597;SDS011;1813;52.016;8.714;2023-05-07T01:19:26;46.37;;;30.30;;
3597;SDS011;1813;52.016;8.714;2023-05-07T01:22:09;46.87;;;29.70;;
3597;SDS011;1813;52.016;8.714;2023-05-07T01:24:56;47.40;;;30.47;;
3597;SDS011;1813;52.016;8.714;2023-05-07T01:27:32;45.40;;;30.63;;
3597;SDS011;1813;52.016;8.714;2023-05-07T01:30:07;46.07;;;30.30;;
3597;SDS011;1813;52.016;8.714;2023-05-07T01:32:45;44.60;;;30.33;;
3597;SDS011;1813;52.016;8.714;2023-05-07T01:35:27;45.73;;;30.87;;
3597;SDS011;1813;52.016;8.714;2023-05-07T01:38:03;43.43;;;30.10;;
3597;SDS011;1813;52.016;8.714;2023-05-07T01:40:40;48.47;;;31.80;;
3597;SDS011;1813;52.016;8.714;2023-05-07T01:43:15;48.10;;;30.10;;
3597;SDS011;1813;52.016;8.714;2023-05-07T01:45:49;45.93;;;30.30;;
3597;SDS011;1813;52.016;8.714;2023-05-07T01:48:23;44.07;;;29.90;;
3597;SDS011;1813;52.016;8.714;2023-05-07T01:50:57;44.70;;;30.23;;
3597;SDS011;1813;52.016;8.714;2023-05-07T01:53:35;48.10;;;32.37;;
3597;SDS011;1813;52.016;8.714;2023-05-07T01:56:12;42.13;;;29.83;;
3597;SDS011;1813;52.016;8.714;2023-05-07T01:58:47;47.17;;;32.20;;
3597;SDS011;1813;52.016;8.714;2023-05-07T02:01:21;47.37;;;30.87;;
3597;SDS011;1813;52.016;8.714;2023-05-07T02:03:55;45.33;;;30.33;;
3597;SDS011;1813;52.016;8.714;2023-05-07T02:06:31;45.30;;;32.23;;
3597;SDS011;1813;52.016;8.714;2023-05-07T02:09:08;46.73;;;29.23;;
3597;SDS011;1813;52.016;8.714;2023-05-07T02:11:48;44.03;;;29.83;;
3597;SDS011;1813;52.016;8.714;2023-05-07T02:14:24;47.77;;;31.70;;
3597;SDS011;1813;52.016;8.714;2023-05-07T02:16:57;43.60;;;29.90;;
3597;SDS011;1813;52.016;8.714;2023-05-07T02:19:31;45.63;;;31.17;;
3597;SDS011;1813;52.016;8.714;2023-05-07T02:22:05;44.90;;;31.43;;
3597;SDS011;1813;52.016;8.714;2023-05-07T02:24:39;43.70;;;30.50;;
3597;SDS011;1813;52.016;8.714;2023-05-07T02:27:17;46.20;;;32.70;;
3597;SDS011;1813;52.016;8.714;2023-05-07T02:29:51;49.87;;;33.30;;
3597;SDS011;1813;52.016;8.714;2023-05-07T02:32:25;50.00;;;32.70;;
3597;SDS011;1813;52.016;8.714;2023-05-07T02:34:59;50.63;;;32.00;;
3597;SDS011;1813;52.016;8.714;2023-05-07T02:37:32;49.70;;;33.20;;
3597;SDS011;1813;52.016;8.714;2023-05-07T02:40:07;46.60;;;31.03;;
3597;SDS011;1813;52.016;8.714;2023-05-07T02:42:44;46.67;;;32.17;;
3597;SDS011;1813;52.016;8.714;2023-05-07T02:45:18;50.83;;;32.37;;
3597;SDS011;1813;52.016;8.714;2023-05-07T02:47:54;51.30;;;31.93;;
3597;SDS011;1813;52.016;8.714;2023-05-07T02:50:28;49.13;;;32.20;;
3597;SDS011;1813;52.016;8.714;2023-05-07T02:53:03;51.17;;;33.30;;
3597;SDS011;1813;52.016;8.714;2023-05-07T02:55:37;49.33;;;32.20;;
3597;SDS011;1813;52.016;8.714;2023-05-07T02:58:13;49.00;;;32.77;;
3597;SDS011;1813;52.016;8.714;2023-05-07T03:00:47;47.10;;;31.70;;
3597;SDS011;1813;52.016;8.714;2023-05-07T03:03:39;46.97;;;32.57;;
3597;SDS011;1813;52.016;8.714;2023-05-07T03:06:13;44.97;;;31.40;;
3597;SDS011;1813;52.016;8.714;2023-05-07T03:08:47;48.20;;;32.07;;
3597;SDS011;1813;52.016;8.714;2023-05-07T03:11:21;48.83;;;32.07;;
3597;SDS011;1813;52.016;8.714;2023-05-07T03:13:57;49.70;;;31.93;;
3597;SDS011;1813;52.016;8.714;2023-05-07T03:16:31;48.70;;;32.10;;
3597;SDS011;1813;52.016;8.714;2023-05-07T03:19:05;47.47;;;32.73;;
3597;SDS011;1813;52.016;8.714;2023-05-07T03:21:38;54.00;;;34.30;;
3597;SDS011;1813;52.016;8.714;2023-05-07T03:24:12;50.23;;;32.80;;
3597;SDS011;1813;52.016;8.714;2023-05-07T03:26:46;62.27;;;31.90;;
3597;SDS011;1813;52.016;8.714;2023-05-07T03:29:23;50.60;;;32.53;;
3597;SDS011;1813;52.016;8.714;2023-05-07T03:31:57;50.10;;;31.87;;
3597;SDS011;1813;52.016;8.714;2023-05-07T03:34:31;48.57;;;32.60;;
3597;SDS011;1813;52.016;8.714;2023-05-07T03:37:05;47.17;;;31.87;;
3597;SDS011;1813;52.016;8.714;2023-05-07T03:39:39;47.87;;;31.13;;
3597;SDS011;1813;52.016;8.714;2023-05-07T03:42:13;47.63;;;31.07;;
3597;SDS011;1813;52.016;8.714;2023-05-07T03:44:50;48.13;;;32.10;;
3597;SDS011;1813;52.016;8.714;2023-05-07T03:47:24;49.70;;;32.13;;
3597;SDS011;1813;52.016;8.714;2023-05-07T03:49:59;50.63;;;33.23;;
3597;SDS011;1813;52.016;8.714;2023-05-07T03:52:33;51.70;;;33.37;;
3597;SDS011;1813;52.016;8.714;2023-05-07T03:55:08;52.57;;;33.53;;
3597;SDS011;1813;52.016;8.714;2023-05-07T03:57:45;51.43;;;33.90;;
3597;SDS011;1813;52.016;8.714;2023-05-07T04:00:22;51.27;;;32.43;;
3597;SDS011;1813;52.016;8.714;2023-05-07T04:02:56;55.13;;;33.93;;
3597;SDS011;1813;52.016;8.714;2023-05-07T04:05:33;52.87;;;33.90;;
3597;SDS011;1813;52.016;8.714;2023-05-07T04:08:07;54.77;;;33.80;;
3597;SDS011;1813;52.016;8.714;2023-05-07T04:10:45;50.27;;;32.20;;
3597;SDS011;1813;52.016;8.714;2023-05-07T04:13:19;51.70;;;32.27;;
3597;SDS011;1813;52.016;8.714;2023-05-07T04:15:56;48.83;;;31.87;;
3597;SDS011;1813;52.016;8.714;2023-05-07T04:18:30;53.77;;;33.57;;
3597;SDS011;1813;52.016;8.714;2023-05-07T04:21:05;47.73;;;32.47;;
3597;SDS011;1813;52.016;8.714;2023-05-07T04:23:46;50.60;;;33.50;;
3597;SDS011;1813;52.016;8.714;2023-05-07T04:26:21;53.70;;;33.60;;
3597;SDS011;1813;52.016;8.714;2023-05-07T04:28:55;50.90;;;33.67;;
3597;SDS011;1813;52.016;8.714;2023-05-07T04:31:37;56.57;;;34.50;;
3597;SDS011;1813;52.016;8.714;2023-05-07T04:34:11;50.70;;;34.50;;
3597;SDS011;1813;52.016;8.714;2023-05-07T04:36:45;53.27;;;33.43;;
3597;SDS011;1813;52.016;8.714;2023-05-07T04:39:19;48.60;;;32.80;;
3597;SDS011;1813;52.016;8.714;2023-05-07T04:41:54;49.07;;;33.23;;
3597;SDS011;1813;52.016;8.714;2023-05-07T04:44:28;50.17;;;32.83;;
3597;SDS011;1813;52.016;8.714;2023-05-07T04:47:06;50.10;;;33.40;;
3597;SDS011;1813;52.016;8.714;2023-05-07T04:49:40;51.20;;;34.37;;
3597;SDS011;1813;52.016;8.714;2023-05-07T04:52:15;48.33;;;32.53;;
3597;SDS011;1813;52.016;8.714;2023-05-07T04:54:50;54.20;;;33.93;;
3597;SDS011;1813;52.016;8.714;2023-05-07T04:57:24;52.10;;;34.33;;
3597;SDS011;1813;52.016;8.714;2023-05-07T04:59:58;50.97;;;33.10;;
3597;SDS011;1813;52.016;8.714;2023-05-07T05:02:37;50.33;;;32.63;;
3597;SDS011;1813;52.016;8.714;2023-05-07T05:05:11;51.07;;;32.70;;
3597;SDS011;1813;52.016;8.714;2023-05-07T05:07:45;53.80;;;33.90;;
3597;SDS011;1813;52.016;8.714;2023-05-07T05:10:19;49.70;;;32.90;;
3597;SDS011;1813;52.016;8.714;2023-05-07T05:12:56;52.53;;;33.27;;
3597;SDS011;1813;52.016;8.714;2023-05-07T05:15:31;49.00;;;31.80;;
3597;SDS011;1813;52.016;8.714;2023-05-07T05:18:08;51.10;;;32.83;;
3597;SDS011;1813;52.016;8.714;2023-05-07T05:20:45;51.77;;;31.77;;
3597;SDS011;1813;52.016;8.714;2023-05-07T05:23:19;49.67;;;32.13;;
3597;SDS011;1813;52.016;8.714;2023-05-07T05:25:55;46.27;;;30.60;;
3597;SDS011;1813;52.016;8.714;2023-05-07T05:28:32;50.90;;;32.33;;
3597;SDS011;1813;52.016;8.714;2023-05-07T05:31:07;46.00;;;30.43;;
3597;SDS011;1813;52.016;8.714;2023-05-07T05:33:43;51.23;;;31.67;;
3597;SDS011;1813;52.016;8.714;2023-05-07T05:36:17;50.10;;;32.50;;
3597;SDS011;1813;52.016;8.714;2023-05-07T05:38:53;47.60;;;30.90;;
3597;SDS011;1813;52.016;8.714;2023-05-07T05:41:27;45.60;;;29.93;;
3597;SDS011;1813;52.016;8.714;2023-05-07T05:44:01;48.93;;;31.13;;
3597;SDS011;1813;52.016;8.714;2023-05-07T05:46:35;43.73;;;29.87;;
3597;SDS011;1813;52.016;8.714;2023-05-07T05:49:12;42.10;;;29.50;;
3597;SDS011;1813;52.016;8.714;2023-05-07T05:51:46;45.13;;;29.37;;
3597;SDS011;1813;52.016;8.714;2023-05-07T05:54:21;47.53;;;30.67;;
3597;SDS011;1813;52.016;8.714;2023-05-07T05:56:54;41.20;;;27.70;;
3597;SDS011;1813;52.016;8.714;2023-05-07T05:59:29;42.97;;;28.70;;
3597;SDS011;1813;52.016;8.714;2023-05-07T06:02:03;47.37;;;30.03;;
3597;SDS011;1813;52.016;8.714;2023-05-07T06:04:40;41.03;;;27.00;;
3597;SDS011;1813;52.016;8.714;2023-05-07T06:07:20;41.20;;;26.97;;
3597;SDS011;1813;52.016;8.714;2023-05-07T06:09:54;40.37;;;27.73;;
3597;SDS011;1813;52.016;8.714;2023-05-07T06:12:28;40.50;;;26.30;;
3597;SDS011;1813;52.016;8.714;2023-05-07T06:15:02;37.07;;;25.73;;
3597;SDS011;1813;52.016;8.714;2023-05-07T06:17:37;36.70;;;25.10;;
3597;SDS011;1813;52.016;8.714;2023-05-07T06:20:14;36.93;;;25.40;;
3597;SDS011;1813;52.016;8.714;2023-05-07T06:22:48;38.67;;;23.77;;
3597;SDS011;1813;52.016;8.714;2023-05-07T06:25:22;31.90;;;21.93;;
3597;SDS011;1813;52.016;8.714;2023-05-07T06:27:56;35.83;;;22.87;;
3597;SDS011;1813;52.016;8.714;2023-05-07T06:30:31;32.37;;;22.20;;
3597;SDS011;1813;52.016;8.714;2023-05-07T06:33:05;34.20;;;23.57;;
3597;SDS011;1813;52.016;8.714;2023-05-07T06:35:41;34.10;;;21.70;;
3597;SDS011;1813;52.016;8.714;2023-05-07T06:38:15;31.90;;;21.20;;
3597;SDS011;1813;52.016;8.714;2023-05-07T06:40:50;31.00;;;21.77;;
3597;SDS011;1813;52.016;8.714;2023-05-07T06:43:26;29.70;;;21.30;;
3597;SDS011;1813;52.016;8.714;2023-05-07T06:46:20;27.03;;;19.43;;
3597;SDS011;1813;52.016;8.714;2023-05-07T06:48:54;27.60;;;19.47;;
3597;SDS011;1813;52.016;8.714;2023-05-07T06:51:30;30.07;;;20.70;;
3597;SDS011;1813;52.016;8.714;2023-05-07T06:54:07;30.50;;;20.00;;
3597;SDS011;1813;52.016;8.714;2023-05-07T06:56:43;28.40;;;20.17;;
3597;SDS011;1813;52.016;8.714;2023-05-07T06:59:17;30.27;;;21.20;;
3597;SDS011;1813;52.016;8.714;2023-05-07T07:01:51;27.40;;;19.50;;
3597;SDS011;1813;52.016;8.714;2023-05-07T07:04:26;34.40;;;19.13;;
3597;SDS011;1813;52.016;8.714;2023-05-07T07:07:09;27.47;;;18.47;;
3597;SDS011;1813;52.016;8.714;2023-05-07T07:09:45;26.93;;;19.00;;
3597;SDS011;1813;52.016;8.714;2023-05-07T07:12:22;25.70;;;18.40;;
3597;SDS011;1813;52.016;8.714;2023-05-07T07:14:57;27.37;;;18.90;;
3597;SDS011;1813;52.016;8.714;2023-05-07T07:17:31;26.10;;;18.17;;
3597;SDS011;1813;52.016;8.714;2023-05-07T07:20:06;27.30;;;19.00;;
3597;SDS011;1813;52.016;8.714;2023-05-07T07:22:44;30.37;;;19.07;;
3597;SDS011;1813;52.016;8.714;2023-05-07T07:25:20;25.83;;;17.90;;
3597;SDS011;1813;52.016;8.714;2023-05-07T07:27:54;25.70;;;18.73;;
3597;SDS011;1813;52.016;8.714;2023-05-07T07:30:31;24.33;;;18.33;;
3597;SDS011;1813;52.016;8.714;2023-05-07T07:33:06;24.57;;;17.50;;
3597;SDS011;1813;52.016;8.714;2023-05-07T07:35:42;23.73;;;17.77;;
3597;SDS011;1813;52.016;8.714;2023-05-07T07:38:19;23.20;;;16.97;;
3597;SDS011;1813;52.016;8.714;2023-05-07T07:40:53;25.60;;;17.20;;
3597;SDS011;1813;52.016;8.714;2023-05-07T07:43:28;25.63;;;17.93;;
3597;SDS011;1813;52.016;8.714;2023-05-07T07:46:03;24.23;;;16.67;;
3597;SDS011;1813;52.016;8.714;2023-05-07T07:48:37;24.07;;;16.37;;
3597;SDS011;1813;52.016;8.714;2023-05-07T07:51:11;23.40;;;15.40;;
3597;SDS011;1813;52.016;8.714;2023-05-07T07:53:48;21.70;;;16.33;;
3597;SDS011;1813;52.016;8.714;2023-05-07T07:56:22;20.73;;;15.83;;
3597;SDS011;1813;52.016;8.714;2023-05-07T07:58:57;23.07;;;15.70;;
3597;SDS011;1813;52.016;8.714;2023-05-07T08:01:31;18.73;;;14.50;;
3597;SDS011;1813;52.016;8.714;2023-05-07T08:04:06;24.23;;;15.83;;
3597;SDS011;1813;52.016;8.714;2023-05-07T08:06:44;18.97;;;14.40;;
3597;SDS011;1813;52.016;8.714;2023-05-07T08:09:21;25.17;;;16.17;;
3597;SDS011;1813;52.016;8.714;2023-05-07T08:11:57;22.73;;;16.23;;
3597;SDS011;1813;52.016;8.714;2023-05-07T08:14:33;20.67;;;15.90;;
3597;SDS011;1813;52.016;8.714;2023-05-07T08:17:09;19.20;;;15.07;;
3597;SDS011;1813;52.016;8.714;2023-05-07T08:19:47;20.03;;;15.57;;
3597;SDS011;1813;52.016;8.714;2023-05-07T08:22:22;21.40;;;15.93;;
3597;SDS011;1813;52.016;8.714;2023-05-07T08:24:59;22.07;;;15.80;;
3597;SDS011;1813;52.016;8.714;2023-05-07T08:27:33;21.90;;;14.90;;
3597;SDS011;1813;52.016;8.714;2023-05-07T08:30:08;19.67;;;15.40;;
3597;SDS011;1813;52.016;8.714;2023-05-07T08:32:44;20.47;;;15.17;;
3597;SDS011;1813;52.016;8.714;2023-05-07T08:35:19;20.37;;;15.67;;
3597;SDS011;1813;52.016;8.714;2023-05-07T08:37:53;20.73;;;15.50;;
3597;SDS011;1813;52.016;8.714;2023-05-07T08:40:29;20.50;;;14.80;;
3597;SDS011;1813;52.016;8.714;2023-05-07T08:43:13;19.70;;;14.83;;
3597;SDS011;1813;52.016;8.714;2023-05-07T08:45:49;17.13;;;14.03;;
3597;SDS011;1813;52.016;8.714;2023-05-07T08:48:30;20.00;;;14.67;;
3597;SDS011;1813;52.016;8.714;2023-05-07T08:51:15;18.80;;;14.23;;
3597;SDS011;1813;52.016;8.714;2023-05-07T08:53:51;19.03;;;14.33;;
3597;SDS011;1813;52.016;8.714;2023-05-07T08:56:36;18.10;;;13.23;;
3597;SDS011;1813;52.016;8.714;2023-05-07T08:59:10;17.87;;;13.80;;
3597;SDS011;1813;52.016;8.714;2023-05-07T09:01:46;17.53;;;13.33;;
3597;SDS011;1813;52.016;8.714;2023-05-07T09:04:20;17.93;;;14.07;;
3597;SDS011;1813;52.016;8.714;2023-05-07T09:06:54;16.00;;;13.50;;
3597;SDS011;1813;52.016;8.714;2023-05-07T09:09:34;22.77;;;14.07;;
3597;SDS011;1813;52.016;8.714;2023-05-07T09:12:11;16.80;;;13.10;;
3597;SDS011;1813;52.016;8.714;2023-05-07T09:14:45;17.33;;;12.00;;
3597;SDS011;1813;52.016;8.714;2023-05-07T09:17:19;16.50;;;12.73;;
3597;SDS011;1813;52.016;8.714;2023-05-07T09:19:54;18.87;;;14.33;;
3597;SDS011;1813;52.016;8.714;2023-05-07T09:22:28;17.43;;;13.50;;
3597;SDS011;1813;52.016;8.714;2023-05-07T09:25:10;17.13;;;12.40;;
3597;SDS011;1813;52.016;8.714;2023-05-07T09:27:47;15.80;;;12.10;;
3597;SDS011;1813;52.016;8.714;2023-05-07T09:30:21;15.70;;;13.00;;
3597;SDS011;1813;52.016;8.714;2023-05-07T09:32:54;14.97;;;12.27;;
3597;SDS011;1813;52.016;8.714;2023-05-07T09:35:30;18.03;;;13.60;;
3597;SDS011;1813;52.016;8.714;2023-05-07T09:38:10;16.43;;;12.90;;
3597;SDS011;1813;52.016;8.714;2023-05-07T09:40:44;16.40;;;12.47;;
3597;SDS011;1813;52.016;8.714;2023-05-07T09:43:22;17.17;;;12.67;;
3597;SDS011;1813;52.016;8.714;2023-05-07T09:46:02;17.30;;;12.63;;
3597;SDS011;1813;52.016;8.714;2023-05-07T09:48:39;15.03;;;12.10;;
3597;SDS011;1813;52.016;8.714;2023-05-07T09:51:18;16.87;;;12.93;;
3597;SDS011;1813;52.016;8.714;2023-05-07T09:53:58;17.97;;;12.43;;
3597;SDS011;1813;52.016;8.714;2023-05-07T09:56:38;17.00;;;13.47;;
3597;SDS011;1813;52.016;8.714;2023-05-07T09:59:17;14.80;;;11.90;;
3597;SDS011;1813;52.016;8.714;2023-05-07T10:01:52;23.13;;;13.33;;
3597;SDS011;1813;52.016;8.714;2023-05-07T10:04:31;15.03;;;11.77;;
3597;SDS011;1813;52.016;8.714;2023-05-07T10:07:05;16.60;;;12.20;;
3597;SDS011;1813;52.016;8.714;2023-05-07T10:09:41;16.53;;;12.43;;
3597;SDS011;1813;52.016;8.714;2023-05-07T10:12:26;15.47;;;12.37;;
3597;SDS011;1813;52.016;8.714;2023-05-07T10:15:10;16.30;;;11.80;;
3597;SDS011;1813;52.016;8.714;2023-05-07T10:17:48;17.83;;;11.83;;
3597;SDS011;1813;52.016;8.714;2023-05-07T10:20:24;14.83;;;12.23;;
3597;SDS011;1813;52.016;8.714;2023-05-07T10:23:00;15.80;;;12.33;;
3597;SDS011;1813;52.016;8.714;2023-05-07T10:25:45;16.27;;;11.43;;
3597;SDS011;1813;52.016;8.714;2023-05-07T10:28:24;17.43;;;12.27;;
3597;SDS011;1813;52.016;8.714;2023-05-07T10:31:04;16.90;;;12.47;;
3597;SDS011;1813;52.016;8.714;2023-05-07T10:33:50;16.70;;;12.00;;
3597;SDS011;1813;52.016;8.714;2023-05-07T10:36:27;14.40;;;11.80;;
3597;SDS011;1813;52.016;8.714;2023-05-07T10:39:02;14.77;;;11.67;;
3597;SDS011;1813;52.016;8.714;2023-05-07T10:41:36;13.50;;;11.23;;
3597;SDS011;1813;52.016;8.714;2023-05-07T10:44:11;17.47;;;12.47;;
3597;SDS011;1813;52.016;8.714;2023-05-07T10:47:10;13.77;;;10.83;;
3597;SDS011;1813;52.016;8.714;2023-05-07T10:56:25;14.97;;;10.63;;
3597;SDS011;1813;52.016;8.714;2023-05-07T11:02:22;11.97;;;9.57;;
3597;SDS011;1813;52.016;8.714;2023-05-07T11:08:11;10.73;;;8.83;;
3597;SDS011;1813;52.016;8.714;2023-05-07T11:10:55;10.97;;;9.37;;
3597;SDS011;1813;52.016;8.714;2023-05-07T11:13:56;12.07;;;9.03;;
3597;SDS011;1813;52.016;8.714;2023-05-07T11:16:37;11.70;;;8.73;;
3597;SDS011;1813;52.016;8.714;2023-05-07T11:22:38;11.37;;;9.07;;
3597;SDS011;1813;52.016;8.714;2023-05-07T11:25:22;12.13;;;9.20;;
3597;SDS011;1813;52.016;8.714;2023-05-07T11:28:10;10.53;;;8.80;;
3597;SDS011;1813;52.016;8.714;2023-05-07T11:30:49;10.40;;;8.70;;
3597;SDS011;1813;52.016;8.714;2023-05-07T11:33:25;10.30;;;9.20;;
3597;SDS011;1813;52.016;8.714;2023-05-07T11:36:04;9.40;;;8.30;;
3597;SDS011;1813;52.016;8.714;2023-05-07T11:38:47;9.83;;;8.13;;
3597;SDS011;1813;52.016;8.714;2023-05-07T11:41:20;10.10;;;8.20;;
3597;SDS011;1813;52.016;8.714;2023-05-07T11:43:55;9.50;;;8.17;;
3597;SDS011;1813;52.016;8.714;2023-05-07T11:46:29;8.50;;;7.60;;
3597;SDS011;1813;52.016;8.714;2023-05-07T11:49:03;10.63;;;8.17;;
3597;SDS011;1813;52.016;8.714;2023-05-07T11:51:41;9.13;;;7.73;;
3597;SDS011;1813;52.016;8.714;2023-05-07T11:54:16;10.90;;;7.83;;
3597;SDS011;1813;52.016;8.714;2023-05-07T11:56:51;9.10;;;7.70;;
3597;SDS011;1813;52.016;8.714;2023-05-07T11:59:25;8.53;;;7.63;;
3597;SDS011;1813;52.016;8.714;2023-05-07T12:01:59;9.50;;;7.50;;
3597;SDS011;1813;52.016;8.714;2023-05-07T12:04:33;8.10;;;7.30;;
3597;SDS011;1813;52.016;8.714;2023-05-07T12:07:13;8.40;;;7.50;;
3597;SDS011;1813;52.016;8.714;2023-05-07T12:09:48;9.53;;;7.47;;
3597;SDS011;1813;52.016;8.714;2023-05-07T12:12:22;8.27;;;7.37;;
3597;SDS011;1813;52.016;8.714;2023-05-07T12:14:57;8.87;;;7.13;;
3597;SDS011;1813;52.016;8.714;2023-05-07T12:17:31;10.23;;;7.00;;
3597;SDS011;1813;52.016;8.714;2023-05-07T12:20:05;7.87;;;6.23;;
3597;SDS011;1813;52.016;8.714;2023-05-07T12:22:43;8.90;;;6.80;;
3597;SDS011;1813;52.016;8.714;2023-05-07T12:25:18;8.00;;;7.20;;
3597;SDS011;1813;52.016;8.714;2023-05-07T12:27:52;7.40;;;6.60;;
3597;SDS011;1813;52.016;8.714;2023-05-07T12:30:29;8.00;;;7.07;;
3597;SDS011;1813;52.016;8.714;2023-05-07T12:33:03;8.03;;;6.43;;
3597;SDS011;1813;52.016;8.714;2023-05-07T12:35:38;9.13;;;7.73;;
3597;SDS011;1813;52.016;8.714;2023-05-07T12:38:16;7.97;;;6.80;;
3597;SDS011;1813;52.016;8.714;2023-05-07T12:40:53;9.43;;;6.60;;
3597;SDS011;1813;52.016;8.714;2023-05-07T12:43:28;11.73;;;7.10;;
3597;SDS011;1813;52.016;8.714;2023-05-07T12:46:03;7.43;;;6.63;;
3597;SDS011;1813;52.016;8.714;2023-05-07T12:48:43;8.57;;;6.97;;
3597;SDS011;1813;52.016;8.714;2023-05-07T12:51:17;7.30;;;6.40;;
3597;SDS011;1813;52.016;8.714;2023-05-07T12:53:54;7.10;;;6.40;;
3597;SDS011;1813;52.016;8.714;2023-05-07T12:56:30;8.67;;;7.17;;
3597;SDS011;1813;52.016;8.714;2023-05-07T12:59:04;6.80;;;6.10;;
3597;SDS011;1813;52.016;8.714;2023-05-07T13:01:38;7.43;;;6.63;;
3597;SDS011;1813;52.016;8.714;2023-05-07T13:04:12;7.57;;;6.50;;
3597;SDS011;1813;52.016;8.714;2023-05-07T13:06:45;9.90;;;6.93;;
3597;SDS011;1813;52.016;8.714;2023-05-07T13:09:22;7.83;;;6.43;;
3597;SDS011;1813;52.016;8.714;2023-05-07T13:11:56;7.43;;;6.63;;
3597;SDS011;1813;52.016;8.714;2023-05-07T13:14:32;12.00;;;7.07;;
3597;SDS011;1813;52.016;8.714;2023-05-07T13:17:06;11.63;;;7.50;;
3597;SDS011;1813;52.016;8.714;2023-05-07T13:19:40;9.20;;;6.77;;
3597;SDS011;1813;52.016;8.714;2023-05-07T13:22:14;9.47;;;6.93;;
3597;SDS011;1813;52.016;8.714;2023-05-07T13:24:50;9.20;;;7.40;;
3597;SDS011;1813;52.016;8.714;2023-05-07T13:27:24;8.70;;;7.00;;
3597;SDS011;1813;52.016;8.714;2023-05-07T13:29:57;7.47;;;6.63;;
3597;SDS011;1813;52.016;8.714;2023-05-07T13:32:31;9.50;;;7.10;;
3597;SDS011;1813;52.016;8.714;2023-05-07T13:35:06;7.40;;;6.70;;
3597;SDS011;1813;52.016;8.714;2023-05-07T13:37:40;8.30;;;7.40;;
3597;SDS011;1813;52.016;8.714;2023-05-07T13:40:16;8.57;;;7.67;;
3597;SDS011;1813;52.016;8.714;2023-05-07T13:42:51;11.10;;;7.67;;
3597;SDS011;1813;52.016;8.714;2023-05-07T13:45:26;10.77;;;7.80;;
3597;SDS011;1813;52.016;8.714;2023-05-07T13:48:00;8.67;;;7.80;;
3597;SDS011;1813;52.016;8.714;2023-05-07T13:50:33;8.90;;;8.00;;
3597;SDS011;1813;52.016;8.714;2023-05-07T13:53:07;11.97;;;8.87;;
3597;SDS011;1813;52.016;8.714;2023-05-07T13:55:44;11.40;;;8.60;;
3597;SDS011;1813;52.016;8.714;2023-05-07T13:58:19;9.70;;;8.60;;
3597;SDS011;1813;52.016;8.714;2023-05-07T14:00:52;9.77;;;7.93;;
3597;SDS011;1813;52.016;8.714;2023-05-07T14:03:26;13.00;;;8.30;;
3597;SDS011;1813;52.016;8.714;2023-05-07T14:06:02;10.83;;;7.80;;
3597;SDS011;1813;52.016;8.714;2023-05-07T14:08:36;9.80;;;8.63;;
3597;SDS011;1813;52.016;8.714;2023-05-07T14:11:12;10.37;;;8.70;;
3597;SDS011;1813;52.016;8.714;2023-05-07T14:13:46;14.03;;;9.43;;
3597;SDS011;1813;52.016;8.714;2023-05-07T14:16:20;10.70;;;9.10;;
3597;SDS011;1813;52.016;8.714;2023-05-07T14:18:54;10.30;;;9.17;;
3597;SDS011;1813;52.016;8.714;2023-05-07T14:21:28;12.30;;;9.80;;
3597;SDS011;1813;52.016;8.714;2023-05-07T14:24:01;14.00;;;9.10;;
3597;SDS011;1813;52.016;8.714;2023-05-07T14:26:38;13.40;;;9.47;;
3597;SDS011;1813;52.016;8.714;2023-05-07T14:29:12;10.27;;;9.07;;
3597;SDS011;1813;52.016;8.714;2023-05-07T14:31:49;12.63;;;10.23;;
3597;SDS011;1813;52.016;8.714;2023-05-07T14:34:23;13.77;;;9.70;;
3597;SDS011;1813;52.016;8.714;2023-05-07T14:36:56;11.50;;;9.80;;
3597;SDS011;1813;52.016;8.714;2023-05-07T14:39:30;11.93;;;10.23;;
3597;SDS011;1813;52.016;8.714;2023-05-07T14:42:06;13.03;;;10.40;;
3597;SDS011;1813;52.016;8.714;2023-05-07T14:44:41;13.47;;;9.70;;
3597;SDS011;1813;52.016;8.714;2023-05-07T14:47:15;10.73;;;9.40;;
3597;SDS011;1813;52.016;8.714;2023-05-07T14:49:49;11.50;;;9.47;;
3597;SDS011;1813;52.016;8.714;2023-05-07T14:52:23;11.00;;;9.17;;
3597;SDS011;1813;52.016;8.714;2023-05-07T14:54:57;15.10;;;10.40;;
3597;SDS011;1813;52.016;8.714;2023-05-07T14:57:33;13.83;;;10.03;;
3597;SDS011;1813;52.016;8.714;2023-05-07T15:00:08;11.03;;;9.50;;
3597;SDS011;1813;52.016;8.714;2023-05-07T15:02:43;14.40;;;10.03;;
3597;SDS011;1813;52.016;8.714;2023-05-07T15:05:17;14.30;;;10.30;;
3597;SDS011;1813;52.016;8.714;2023-05-07T15:07:51;14.07;;;9.93;;
3597;SDS011;1813;52.016;8.714;2023-05-07T15:10:26;12.17;;;9.70;;
3597;SDS011;1813;52.016;8.714;2023-05-07T15:13:02;11.20;;;9.63;;
3597;SDS011;1813;52.016;8.714;2023-05-07T15:15:37;13.23;;;10.07;;
3597;SDS011;1813;52.016;8.714;2023-05-07T15:18:11;12.83;;;10.30;;
3597;SDS011;1813;52.016;8.714;2023-05-07T15:20:45;12.60;;;10.47;;
3597;SDS011;1813;52.016;8.714;2023-05-07T15:23:19;14.90;;;10.30;;
3597;SDS011;1813;52.016;8.714;2023-05-07T15:25:53;14.70;;;11.17;;
3597;SDS011;1813;52.016;8.714;2023-05-07T15:28:30;12.10;;;10.27;;
3597;SDS011;1813;52.016;8.714;2023-05-07T15:31:04;13.10;;;11.03;;
3597;SDS011;1813;52.016;8.714;2023-05-07T15:33:38;16.60;;;10.80;;
3597;SDS011;1813;52.016;8.714;2023-05-07T15:36:12;12.87;;;10.10;;
3597;SDS011;1813;52.016;8.714;2023-05-07T15:38:45;13.43;;;10.93;;
3597;SDS011;1813;52.016;8.714;2023-05-07T15:41:19;12.77;;;10.40;;
3597;SDS011;1813;52.016;8.714;2023-05-07T15:43:56;14.43;;;10.60;;
3597;SDS011;1813;52.016;8.714;2023-05-07T15:46:30;13.40;;;10.00;;
3597;SDS011;1813;52.016;8.714;2023-05-07T15:49:04;11.27;;;10.07;;
3597;SDS011;1813;52.016;8.714;2023-05-07T15:51:37;14.23;;;9.60;;
3597;SDS011;1813;52.016;8.714;2023-05-07T15:54:11;12.77;;;9.60;;
3597;SDS011;1813;52.016;8.714;2023-05-07T15:56:47;12.10;;;9.90;;
3597;SDS011;1813;52.016;8.714;2023-05-07T15:59:24;18.10;;;9.80;;
3597;SDS011;1813;52.016;8.714;2023-05-07T16:01:58;11.83;;;9.80;;